Albany, New York
Traffic Map
Current Weather Conditions
Albany, New York
Overcast
Overcast
36°
Feels Like: 28°
Wind Chill: 28° Ceiling: 3300
Heat Index: 36° Visibility: 10mi
Dew Point: 32° Wind: 12mph
Humidity: 86% Direction: 170° (S)
Pressure: 29.91in Gusts: 0mph
Raw Report DataKALB 051651Z 17010KT 10SM SCT008 BKN033 OVC050 02/00 A2991 RMK AO2 SLP130 OCNL BINOVC T00220000
Traffic Incident Summary
Active as of:
Severity:
Category:
InformationThere was an issue retrieving the traffic information for this location. Please try a different location or try again shortly.
Advertisements
Track Severe Weather on mobile